Terminal Aerodrome Forecast
Issued by NWS

Home | Current Version | Previous Version | Text Only | Print | Product List | Glossary On
Versions: 1 2 3 4 5 6 7 8 9 10 11 12 13 14 15 16 17 18 19 20 21
000
FTUS44 KSJT 250500
TAFBBD
TAF
KBBD 250532Z 2506/2606 VRB04KT P6SM SKC
     FM250700 17006KT P6SM OVC012
     FM251200 17009KT P6SM VCTS OVC015CB
     FM251800 22014G20KT 6SM -SHRA BKN025
     FM252000 20015G20KT P6SM SKC
     FM260000 18007KT P6SM SKC=

USA.gov is the U.S. government's official web portal to all federal, state and local government web resources and services.